Time;durP1;ratioP1;P1;durP2;ratioP2;P2;SDS_P1;SDS_P2;PMS_P1;PMS_P2;Temp;Humidity;BMP_temperature;BMP_pressure;BME280_temperature;BME280_humidity;BME280_pressure;Samples;Min_cycle;Max_cycle;Signal;HPM_P1;HPM_P2
2022/08/03 00:01:39;;;;;;;7.10;4.78;;;;;;;17.56;70.35;100532.53;5035769;28;20036;-73
2022/08/03 00:04:05;;;;;;;8.23;5.22;;;;;;;17.54;69.79;100538.06;5053081;28;20040;-73
2022/08/03 00:06:31;;;;;;;8.48;5.20;;;;;;;17.52;69.84;100538.59;5051883;28;20032;-73
2022/08/03 00:08:57;;;;;;;7.68;4.80;;;;;;;17.51;69.78;100534.16;5053087;28;20040;-73
2022/08/03 00:11:22;;;;;;;5.72;4.90;;;;;;;17.48;70.07;100535.22;5052873;28;20378;-73
2022/08/03 00:13:48;;;;;;;5.32;4.53;;;;;;;17.46;70.30;100537.06;5053120;28;20036;-74
2022/08/03 00:16:13;;;;;;;6.82;4.50;;;;;;;17.42;70.49;100541.00;5051685;28;20051;-74
2022/08/03 00:18:39;;;;;;;8.60;4.75;;;;;;;17.39;70.72;100539.19;5051673;28;20159;-74
2022/08/03 00:21:04;;;;;;;5.47;4.50;;;;;;;17.38;70.98;100536.84;5051629;28;20043;-74
2022/08/03 00:23:30;;;;;;;7.40;5.05;;;;;;;17.33;71.08;100529.00;5035170;28;20024;-73
2022/08/03 00:25:56;;;;;;;6.70;5.35;;;;;;;17.33;71.24;100534.78;5051765;28;20029;-73
2022/08/03 00:28:21;;;;;;;8.93;5.30;;;;;;;17.30;71.63;100536.59;5053192;28;20100;-74
2022/08/03 00:30:47;;;;;;;8.15;4.97;;;;;;;17.26;71.13;100536.13;5052876;28;20374;-74
2022/08/03 00:33:12;;;;;;;8.27;4.93;;;;;;;17.23;71.51;100540.09;5052878;28;20056;-74
2022/08/03 00:35:37;;;;;;;7.22;5.30;;;;;;;17.20;71.68;100534.56;5051612;28;20377;-73
2022/08/03 00:38:04;;;;;;;7.05;5.45;;;;;;;17.14;72.36;100531.72;5051413;28;20083;-73
2022/08/03 00:40:29;;;;;;;6.88;4.90;;;;;;;17.13;72.83;100532.25;5053030;28;20017;-73
2022/08/03 00:43:00;;;;;;;5.38;4.80;;;;;;;17.12;72.80;100533.56;5056795;28;20075;-73
2022/08/03 00:45:30;;;;;;;7.82;5.63;;;;;;;17.09;73.21;100529.66;5056492;28;20095;-73
2022/08/03 00:47:57;;;;;;;8.57;5.40;;;;;;;17.07;73.25;100540.16;5055424;28;20111;-74
2022/08/03 00:50:23;;;;;;;6.32;4.97;;;;;;;17.03;73.49;100534.69;5055286;28;20033;-74
2022/08/03 00:52:51;;;;;;;7.22;5.28;;;;;;;16.99;73.84;100532.03;5056824;28;20025;-73
2022/08/03 00:55:16;;;;;;;7.68;5.47;;;;;;;16.98;74.45;100532.59;5055149;28;20462;-73
2022/08/03 00:57:42;;;;;;;10.60;6.28;;;;;;;16.94;73.99;100527.09;5056439;28;20031;-73
2022/08/03 01:00:09;;;;;;;7.25;5.25;;;;;;;16.92;74.35;100529.75;5056497;28;20107;-73
2022/08/03 01:02:36;;;;;;;8.68;5.35;;;;;;;16.90;74.50;100528.69;5056560;28;20408;-74
2022/08/03 01:05:02;;;;;;;8.95;5.53;;;;;;;16.87;74.21;100526.88;5055033;28;20033;-74
2022/08/03 01:07:53;;;;;;;11.93;5.70;;;;;;;16.87;74.87;100527.66;5055558;28;20020;-74
2022/08/03 01:10:34;;;;;;;8.18;5.40;;;;;;;16.82;74.71;100525.59;5056439;28;20044;-73
2022/08/03 01:13:11;;;;;;;7.07;5.45;;;;;;;16.78;75.01;100525.06;5038197;28;20021;-73
2022/08/03 01:15:57;;;;;;;7.03;5.50;;;;;;;16.75;75.49;100519.56;5056291;28;20103;-73
2022/08/03 01:18:40;;;;;;;18.45;5.82;;;;;;;16.71;75.37;100524.84;5055198;28;20021;-73
2022/08/03 01:21:13;;;;;;;7.55;6.13;;;;;;;16.65;75.62;100519.09;5038117;28;20028;-73
2022/08/03 01:23:55;;;;;;;8.40;5.15;;;;;;;16.62;75.91;100522.25;5054714;28;20067;-72
2022/08/03 01:26:39;;;;;;;;;;;;;;;16.55;76.39;100515.72;5056560;28;20033;-72
2022/08/03 01:29:39;;;;;;;7.85;5.28;;;;;;;16.49;76.32;100517.81;5054619;28;20019;-72
2022/08/03 01:32:10;;;;;;;5.57;5.07;;;;;;;16.43;76.39;100522.81;5054459;28;20512;-72
2022/08/03 01:34:47;;;;;;;6.78;5.60;;;;;;;16.42;76.54;100520.44;5037959;28;20017;-74
2022/08/03 01:37:15;;;;;;;7.20;5.45;;;;;;;16.38;77.06;100520.72;5054597;28;20028;-73
2022/08/03 01:39:41;;;;;;;8.57;5.25;;;;;;;16.34;77.30;100519.44;5037759;28;20454;-73
2022/08/03 01:42:09;;;;;;;9.15;5.75;;;;;;;16.31;77.32;100508.94;5054721;28;20402;-74
2022/08/03 01:44:40;;;;;;;7.65;5.95;;;;;;;16.27;77.98;100511.31;5037379;28;20036;-73
2022/08/03 01:47:06;;;;;;;;;;;;;;;16.23;78.44;100513.69;5054970;28;20059;-74
2022/08/03 01:49:36;;;;;;;10.40;5.97;;;;;;;16.16;78.40;100509.22;5054416;28;20437;-74
2022/08/03 01:52:02;;;;;;;7.18;5.70;;;;;;;16.12;78.24;100509.50;5054321;28;20025;-72
2022/08/03 01:54:28;;;;;;;9.80;6.82;;;;;;;16.11;78.55;100502.16;5055308;28;20450;-72
2022/08/03 01:56:56;;;;;;;9.18;6.50;;;;;;;16.10;78.57;100506.38;5055157;28;20028;-73
2022/08/03 01:59:22;;;;;;;8.48;6.78;;;;;;;16.09;78.78;100499.03;5054027;28;20090;-73
2022/08/03 02:01:48;;;;;;;9.45;6.55;;;;;;;16.06;79.11;100496.41;5055361;28;20453;-72
2022/08/03 02:04:16;;;;;;;8.32;6.45;;;;;;;16.06;79.30;100497.19;5055130;28;20103;-72
2022/08/03 02:06:44;;;;;;;9.15;6.82;;;;;;;16.05;79.80;100491.97;5037198;28;20032;-73
2022/08/03 02:09:11;;;;;;;8.48;6.95;;;;;;;16.03;80.29;100495.38;5054172;28;20103;-73
2022/08/03 02:11:37;;;;;;;6.97;6.15;;;;;;;16.02;80.29;100490.13;5053705;28;20373;-74
2022/08/03 02:14:04;;;;;;;7.90;5.97;;;;;;;16.01;80.38;100491.44;5054272;28;20033;-73
2022/08/03 02:16:30;;;;;;;7.32;6.53;;;;;;;15.98;80.46;100499.03;5037034;28;20025;-74
2022/08/03 02:18:57;;;;;;;8.68;6.55;;;;;;;15.96;80.46;100495.88;5053667;28;20056;-72
2022/08/03 02:21:22;;;;;;;9.30;6.35;;;;;;;15.93;80.92;100496.16;5037199;28;20032;-73
2022/08/03 02:23:48;;;;;;;7.32;6.38;;;;;;;15.91;80.97;100488.03;5036753;28;20029;-72
2022/08/03 02:26:16;;;;;;;8.50;6.55;;;;;;;15.88;81.19;100485.44;5054506;28;20051;-74
2022/08/03 02:28:44;;;;;;;10.40;6.95;;;;;;;15.88;81.41;100488.31;5036706;28;20029;-73
2022/08/03 02:31:16;;;;;;;9.73;6.13;;;;;;;15.87;81.43;100492.50;5053655;28;20086;-73
2022/08/03 02:33:53;;;;;;;7.68;6.05;;;;;;;15.84;81.64;100488.59;5053512;28;20040;-73
2022/08/03 02:36:21;;;;;;;8.95;6.93;;;;;;;15.84;81.76;100493.56;5053184;28;20374;-74
2022/08/03 02:38:51;;;;;;;8.32;6.45;;;;;;;15.81;81.81;100486.72;5052962;28;20434;-74
2022/08/03 02:41:21;;;;;;;7.13;6.43;;;;;;;15.80;81.93;100488.06;5053371;28;20029;-74
2022/08/03 02:43:49;;;;;;;11.15;6.80;;;;;;;15.81;82.03;100498.25;5053170;28;20037;-73
2022/08/03 02:46:18;;;;;;;12.10;6.75;;;;;;;15.83;82.30;100491.97;5036373;28;20033;-73
2022/08/03 02:48:45;;;;;;;8.98;6.72;;;;;;;15.85;82.18;100489.38;5053242;28;20033;-74
2022/08/03 02:51:11;;;;;;;7.65;6.47;;;;;;;15.88;82.19;100494.06;5036270;28;20120;-73
2022/08/03 02:53:37;;;;;;;11.70;7.35;;;;;;;15.93;82.18;100499.03;5054353;28;20117;-74
2022/08/03 02:56:04;;;;;;;11.30;7.05;;;;;;;15.95;81.91;100500.09;5053132;28;20021;-73
2022/08/03 02:58:30;;;;;;;13.02;6.72;;;;;;;16.00;81.91;100502.19;5052908;28;20021;-73
2022/08/03 03:00:56;;;;;;;10.52;7.05;;;;;;;16.04;81.80;100499.03;5054129;28;20040;-73
2022/08/03 03:03:22;;;;;;;9.73;6.47;;;;;;;16.09;82.04;100501.91;5052534;28;20033;-73
2022/08/03 03:05:48;;;;;;;11.60;6.63;;;;;;;16.16;81.63;100499.78;5052484;28;20043;-74
2022/08/03 03:08:15;;;;;;;9.95;6.85;;;;;;;16.20;81.19;100501.13;5036030;28;20036;-73
2022/08/03 03:10:41;;;;;;;11.15;7.00;;;;;;;16.25;81.61;100508.97;5052726;28;20367;-73
2022/08/03 03:13:07;;;;;;;10.02;7.22;;;;;;;16.32;81.33;100504.75;5052675;28;20120;-73
2022/08/03 03:15:35;;;;;;;7.18;6.47;;;;;;;16.35;81.06;100510.22;5052679;28;20079;-73
2022/08/03 03:18:01;;;;;;;9.88;6.57;;;;;;;16.37;81.13;100507.59;5053718;28;20040;-73
2022/08/03 03:20:27;;;;;;;8.98;6.93;;;;;;;16.40;81.00;100505.78;5052402;28;20033;-75
2022/08/03 03:22:53;;;;;;;9.68;6.68;;;;;;;16.42;80.57;100512.59;5052750;28;20103;-73
2022/08/03 03:25:20;;;;;;;10.70;7.18;;;;;;;16.41;80.63;100510.22;5052282;28;20119;-74
2022/08/03 03:27:45;;;;;;;8.73;6.75;;;;;;;16.41;80.54;100518.88;5052427;28;20024;-73
2022/08/03 03:30:11;;;;;;;8.27;7.15;;;;;;;16.44;80.56;100518.63;5052706;28;20497;-73
2022/08/03 03:32:38;;;;;;;16.23;7.35;;;;;;;16.47;80.36;100516.75;5052144;28;20029;-73
2022/08/03 03:35:04;;;;;;;8.52;6.50;;;;;;;16.47;80.43;100514.66;5052262;28;20021;-73
2022/08/03 03:37:30;;;;;;;7.25;6.30;;;;;;;16.51;80.44;100515.16;5053075;28;20339;-74
2022/08/03 03:39:55;;;;;;;12.55;7.03;;;;;;;16.52;80.52;100510.19;5053600;28;20025;-74
2022/08/03 03:42:21;;;;;;;9.63;6.72;;;;;;;16.52;80.62;100508.09;5052305;28;20120;-74
2022/08/03 03:44:46;;;;;;;12.23;7.07;;;;;;;16.58;80.51;100516.75;5053295;28;20086;-73
2022/08/03 03:47:12;;;;;;;8.27;6.53;;;;;;;16.62;80.31;100513.59;5053211;28;20064;-73
2022/08/03 03:49:38;;;;;;;8.82;6.68;;;;;;;16.69;80.17;100521.72;5052484;28;20044;-73
2022/08/03 03:52:04;;;;;;;10.82;6.53;;;;;;;16.76;80.10;100524.03;5053429;28;20110;-73
2022/08/03 03:54:40;;;;;;;7.43;6.60;;;;;;;16.80;79.86;100524.53;5052033;28;20029;-74
2022/08/03 03:57:05;;;;;;;11.95;6.97;;;;;;;16.83;79.69;100524.28;5053385;28;20174;-74
2022/08/03 03:59:31;;;;;;;10.98;6.63;;;;;;;16.90;79.53;100528.69;5053111;28;20569;-73
2022/08/03 04:01:57;;;;;;;6.95;6.20;;;;;;;16.95;79.56;100522.88;5051731;28;20509;-73
2022/08/03 04:12:36;;;;;;;9.32;6.80;;;;;;;17.03;78.97;100528.91;5051918;28;20043;-73
2022/08/03 04:15:02;;;;;;;8.88;6.82;;;;;;;17.04;78.67;100533.38;5035088;28;20021;-74
2022/08/03 04:17:28;;;;;;;10.93;6.57;;;;;;;17.02;78.50;100540.97;5055111;28;20032;-73
2022/08/03 04:19:54;;;;;;;12.95;7.32;;;;;;;16.97;78.65;100533.91;5055792;28;20108;-73
2022/08/03 04:22:24;;;;;;;8.05;6.53;;;;;;;16.94;78.93;100537.88;5057166;28;20067;-73
2022/08/03 04:24:53;;;;;;;11.50;6.95;;;;;;;16.82;78.87;100528.47;5039021;28;20033;-74
2022/08/03 04:27:24;;;;;;;13.52;7.80;;;;;;;16.89;79.52;100538.69;5056035;28;20029;-74
2022/08/03 04:29:52;;;;;;;10.73;6.95;;;;;;;16.86;79.45;100537.63;5055576;28;20024;-74
2022/08/03 04:32:19;;;;;;;8.95;6.88;;;;;;;16.89;79.65;100539.47;5055598;28;20477;-73
2022/08/03 04:34:44;;;;;;;11.98;7.28;;;;;;;16.93;79.61;100542.06;5056902;28;20418;-73
2022/08/03 04:37:13;;;;;;;18.83;7.15;;;;;;;16.95;79.61;100548.88;5056136;28;20067;-74
2022/08/03 04:39:41;;;;;;;13.10;6.68;;;;;;;17.01;79.30;100545.97;5056876;28;20482;-73
2022/08/03 04:42:08;;;;;;;14.27;7.22;;;;;;;17.07;79.49;100558.28;5056018;28;20103;-75
2022/08/03 04:44:38;;;;;;;11.05;7.50;;;;;;;17.10;79.37;100554.31;5038901;28;20029;-74
2022/08/03 04:47:03;;;;;;;11.73;7.35;;;;;;;17.12;79.34;100553.78;5055676;28;20104;-74
2022/08/03 04:49:29;;;;;;;11.07;6.90;;;;;;;17.13;79.00;100561.94;5055424;28;20148;-74
2022/08/03 04:51:54;;;;;;;11.50;8.07;;;;;;;17.16;79.34;100554.28;5055510;28;20112;-74
2022/08/03 04:54:20;;;;;;;11.20;7.60;;;;;;;17.24;78.98;100561.09;5055534;28;20432;-73
2022/08/03 04:56:45;;;;;;;8.60;7.25;;;;;;;17.32;79.33;100553.41;5038744;28;20120;-73
2022/08/03 04:59:11;;;;;;;10.80;7.10;;;;;;;17.42;78.74;100560.44;5055567;28;20040;-73
2022/08/03 05:01:38;;;;;;;9.18;7.53;;;;;;;17.52;78.67;100555.94;5038677;28;20055;-73
2022/08/03 05:04:04;;;;;;;13.43;7.78;;;;;;;17.60;78.01;100561.94;5056974;28;20033;-74
2022/08/03 05:06:29;;;;;;;14.02;7.38;;;;;;;17.63;77.97;100561.66;5056489;28;20033;-73
2022/08/03 05:08:55;;;;;;;12.48;7.57;;;;;;;17.64;77.77;100551.66;5056398;28;20039;-73
2022/08/03 05:11:20;;;;;;;10.38;7.38;;;;;;;17.63;77.85;100557.97;5056503;28;20090;-73
2022/08/03 05:13:46;;;;;;;9.40;7.18;;;;;;;17.62;77.73;100556.41;5056378;28;20021;-74
2022/08/03 05:16:12;;;;;;;10.93;7.38;;;;;;;17.65;77.96;100552.44;5056231;28;20044;-72
2022/08/03 05:18:38;;;;;;;9.38;7.82;;;;;;;17.70;77.70;100560.28;5056295;28;20032;-75
2022/08/03 05:21:04;;;;;;;9.85;7.18;;;;;;;17.79;77.83;100551.25;5056068;28;20032;-73
2022/08/03 05:23:29;;;;;;;13.55;8.00;;;;;;;17.91;78.08;100540.41;5056261;28;20025;-74
2022/08/03 05:25:55;;;;;;;15.43;7.78;;;;;;;18.05;77.31;100554.47;5056205;28;20428;-74
2022/08/03 05:28:20;;;;;;;11.88;7.35;;;;;;;18.19;77.01;100549.59;5054443;28;20036;-74
2022/08/03 05:30:46;;;;;;;8.90;7.00;;;;;;;18.32;76.84;100552.69;5054698;28;20482;-74
2022/08/03 05:33:11;;;;;;;19.13;7.43;;;;;;;18.44;76.23;100550.44;5056097;28;20532;-73
2022/08/03 05:35:38;;;;;;;19.55;7.55;;;;;;;18.56;75.72;100564.25;5054632;28;20028;-74
2022/08/03 05:38:03;;;;;;;24.58;8.05;;;;;;;18.64;75.56;100561.53;5055643;28;20459;-73
2022/08/03 05:40:29;;;;;;;10.20;6.70;;;;;;;18.74;75.29;100561.94;5055976;28;20057;-73
2022/08/03 05:42:54;;;;;;;10.75;6.80;;;;;;;18.84;75.20;100563.16;5054902;28;20136;-73
2022/08/03 05:45:20;;;;;;;14.45;6.30;;;;;;;18.93;74.83;100565.66;5054717;28;20104;-74
2022/08/03 05:47:45;;;;;;;9.57;5.88;;;;;;;18.98;74.53;100550.31;5037985;28;20486;-74
2022/08/03 05:50:12;;;;;;;289.02;43.28;;;;;;;19.18;74.19;100578.81;5054302;28;20462;-73
2022/08/03 05:52:38;;;;;;;9.80;6.25;;;;;;;19.33;74.23;100561.72;5055701;28;20060;-74
2022/08/03 05:55:05;;;;;;;8.45;6.65;;;;;;;19.51;73.33;100572.53;5054848;28;20025;-74
2022/08/03 05:57:31;;;;;;;45.38;9.30;;;;;;;19.71;72.70;100576.97;5055490;28;20462;-74
2022/08/03 05:59:56;;;;;;;9.18;6.75;;;;;;;19.93;72.11;100575.84;5055964;28;20025;-73
2022/08/03 06:02:22;;;;;;;7.40;4.97;;;;;;;20.10;71.26;100569.81;5054115;28;20416;-75
2022/08/03 06:04:47;;;;;;;13.63;6.47;;;;;;;20.26;70.73;100583.22;5053796;28;20039;-73
2022/08/03 06:07:12;;;;;;;12.57;5.65;;;;;;;20.40;70.63;100576.09;5054139;28;20021;-75
2022/08/03 06:09:38;;;;;;;9.23;5.10;;;;;;;20.53;69.97;100584.06;5055608;28;20112;-74
2022/08/03 06:12:04;;;;;;;10.93;5.60;;;;;;;20.67;69.43;100582.75;5037259;28;20124;-74
2022/08/03 06:14:29;;;;;;;10.18;5.57;;;;;;;20.82;69.12;100585.91;5054272;28;20033;-74
2022/08/03 06:16:54;;;;;;;43.15;10.23;;;;;;;20.93;68.60;100584.91;5055077;28;20488;-73
2022/08/03 06:19:20;;;;;;;7.50;5.18;;;;;;;21.03;68.21;100583.13;5054960;28;20083;-75
2022/08/03 06:21:45;;;;;;;14.05;5.60;;;;;;;21.16;68.46;100586.78;5055316;28;20029;-74
2022/08/03 06:24:11;;;;;;;12.20;5.00;;;;;;;21.34;67.64;100587.97;5053795;28;20029;-74
2022/08/03 06:26:36;;;;;;;20.00;6.32;;;;;;;21.56;67.43;100589.63;5053831;28;20090;-74
2022/08/03 06:29:01;;;;;;;6.72;4.50;;;;;;;21.75;66.67;100581.50;5053692;28;20378;-73
2022/08/03 06:31:28;;;;;;;20.95;5.57;;;;;;;21.97;65.67;100589.72;5054878;28;20170;-73
2022/08/03 06:33:54;;;;;;;6.38;4.40;;;;;;;22.24;65.28;100601.25;5055037;28;20029;-74
2022/08/03 06:36:19;;;;;;;5.68;3.85;;;;;;;22.55;63.98;100600.16;5054747;28;20036;-74
2022/08/03 06:38:44;;;;;;;73.32;11.65;;;;;;;22.94;63.62;100593.28;5053685;28;20049;-74
2022/08/03 06:41:10;;;;;;;8.10;4.10;;;;;;;23.50;62.81;100600.38;5053739;28;20017;-74
2022/08/03 06:43:36;;;;;;;9.18;3.40;;;;;;;24.95;60.28;100600.03;5053206;28;20473;-74
2022/08/03 06:46:03;;;;;;;10.70;3.65;;;;;;;26.81;55.06;100600.81;5054240;28;20104;-75
2022/08/03 06:48:28;;;;;;;3.63;3.08;;;;;;;28.31;50.38;100608.34;5054415;28;20044;-74
2022/08/03 06:50:53;;;;;;;7.75;3.22;;;;;;;29.71;47.58;100612.06;5053080;28;20025;-73
2022/08/03 06:53:19;;;;;;;5.03;2.88;;;;;;;31.38;44.39;100613.06;5053221;28;20024;-74
2022/08/03 06:55:44;;;;;;;4.90;2.90;;;;;;;33.36;40.49;100616.31;5053012;28;20413;-74
2022/08/03 06:58:10;;;;;;;3.10;2.80;;;;;;;35.40;36.39;100615.31;5054449;28;20017;-73
2022/08/03 07:00:35;;;;;;;3.35;3.03;;;;;;;36.94;33.46;100623.69;5052904;28;20023;-74
2022/08/03 07:03:00;;;;;;;6.28;2.60;;;;;;;38.52;30.48;100628.28;5054055;28;20071;-75
2022/08/03 07:05:26;;;;;;;4.20;2.60;;;;;;;39.93;28.47;100620.06;5053092;28;20164;-74
2022/08/03 07:07:56;;;;;;;4.10;2.20;;;;;;;41.13;26.07;100618.56;5054273;28;20052;-74
2022/08/03 07:10:21;;;;;;;5.22;2.40;;;;;;;42.26;24.72;100627.56;5054089;28;20470;-75
2022/08/03 07:12:47;;;;;;;8.80;2.83;;;;;;;43.26;22.96;100621.47;5052783;28;20032;-75
2022/08/03 07:15:12;;;;;;;2.65;2.33;;;;;;;44.19;21.90;100610.34;5052758;28;20462;-75
2022/08/03 07:17:38;;;;;;;8.15;2.25;;;;;;;45.08;20.42;100611.56;5052584;28;20029;-75
2022/08/03 07:20:06;;;;;;;2.45;2.25;;;;;;;45.79;19.17;100622.16;5052613;28;20499;-75
2022/08/03 07:22:32;;;;;;;4.78;2.65;;;;;;;46.56;18.84;100615.91;5052680;28;20025;-75
2022/08/03 07:24:58;;;;;;;3.90;2.13;;;;;;;47.18;17.81;100622.28;5035861;28;20139;-75
2022/08/03 07:27:29;;;;;;;6.07;2.22;;;;;;;47.71;17.86;100611.00;5052438;28;20053;-75
2022/08/03 07:29:55;;;;;;;6.07;2.67;;;;;;;48.13;16.70;100619.34;5036104;28;20059;-76
2022/08/03 07:32:20;;;;;;;3.20;2.05;;;;;;;48.42;16.87;100620.06;5052269;28;20431;-75
2022/08/03 07:34:46;;;;;;;2.78;1.80;;;;;;;48.77;16.30;100616.94;5053500;28;20117;-76
2022/08/03 07:37:11;;;;;;;6.63;2.03;;;;;;;49.28;15.66;100596.91;5052421;28;20032;-75
2022/08/03 07:39:37;;;;;;;2.03;1.80;;;;;;;49.75;15.93;100605.72;5051992;28;20056;-77
2022/08/03 07:42:02;;;;;;;2.70;2.05;;;;;;;50.09;14.43;100608.44;5052266;28;20075;-74
2022/08/03 07:44:28;;;;;;;6.63;2.05;;;;;;;50.15;14.33;100608.41;5053501;28;20021;-75
2022/08/03 07:46:53;;;;;;;2.30;1.60;;;;;;;50.26;14.87;100608.28;5052086;28;20057;-76
2022/08/03 07:49:19;;;;;;;4.22;1.98;;;;;;;50.40;14.53;100605.09;5035411;28;20025;-75
2022/08/03 07:51:44;;;;;;;1.70;1.60;;;;;;;50.49;13.27;100610.34;5053373;28;20036;-75
2022/08/03 07:54:09;;;;;;;2.40;2.20;;;;;;;50.74;13.38;100603.94;5052419;28;20530;-76
2022/08/03 07:56:35;;;;;;;8.07;1.83;;;;;;;50.86;13.25;100609.88;5052129;28;20286;-76
2022/08/03 07:59:01;;;;;;;5.75;2.42;;;;;;;50.73;13.54;100615.38;5052187;28;20093;-76
2022/08/03 08:01:27;;;;;;;2.28;1.90;;;;;;;50.30;12.32;100620.44;5051820;28;20016;-76
2022/08/03 08:03:53;;;;;;;5.75;1.67;;;;;;;49.57;13.75;100609.63;5035452;28;20021;-76
2022/08/03 08:06:18;;;;;;;2.63;1.88;;;;;;;49.12;13.41;100593.97;5052048;28;20032;-75
2022/08/03 08:08:44;;;;;;;6.93;1.60;;;;;;;49.06;13.53;100596.28;5051865;28;20032;-76
2022/08/03 08:11:09;;;;;;;4.18;1.92;;;;;;;49.00;13.72;100602.41;5053159;28;20282;-76
2022/08/03 08:13:36;;;;;;;8.75;2.22;;;;;;;48.76;14.01;100600.97;5053152;28;20031;-75
2022/08/03 08:16:02;;;;;;;3.58;1.90;;;;;;;48.35;13.47;100596.53;5053277;28;20023;-76
2022/08/03 08:18:30;;;;;;;3.50;2.08;;;;;;;48.03;14.17;100604.16;5052290;28;20092;-75
2022/08/03 08:20:56;;;;;;;3.03;1.58;;;;;;;47.62;14.30;100590.53;5052091;28;20045;-75
2022/08/03 08:23:24;;;;;;;1.75;1.60;;;;;;;47.30;14.22;100585.19;5052103;28;20056;-76
2022/08/03 08:25:51;;;;;;;1.52;1.42;;;;;;;47.07;14.75;100581.34;5035486;28;20031;-75
2022/08/03 08:28:17;;;;;;;3.85;1.60;;;;;;;46.90;14.65;100583.56;5051956;28;20075;-76
2022/08/03 08:30:43;;;;;;;7.22;1.83;;;;;;;46.81;15.00;100581.25;5051657;28;20036;-76
2022/08/03 08:33:09;;;;;;;1.95;1.67;;;;;;;46.61;15.10;100581.91;5035271;28;20025;-77
2022/08/03 08:35:34;;;;;;;2.58;1.98;;;;;;;46.16;14.92;100583.91;5052015;28;20027;-78
2022/08/03 08:38:00;;;;;;;2.15;1.95;;;;;;;45.77;15.34;100579.81;5051585;28;20045;-76
2022/08/03 08:40:26;;;;;;;1.65;1.55;;;;;;;45.45;15.41;100580.28;5035087;28;20431;-75
2022/08/03 08:42:51;;;;;;;5.65;2.08;;;;;;;45.03;15.91;100567.75;5035124;28;20036;-76
2022/08/03 08:45:18;;;;;;;3.22;1.52;;;;;;;44.56;16.05;100573.22;5051689;28;20381;-77
2022/08/03 08:47:45;;;;;;;2.28;1.33;;;;;;;44.24;16.96;100561.44;5035150;28;20036;-76
2022/08/03 08:50:11;;;;;;;8.65;2.72;;;;;;;44.23;17.52;100556.91;5052902;28;20034;-75
2022/08/03 08:52:39;;;;;;;5.20;2.00;;;;;;;44.19;17.14;100556.84;5034966;28;20025;-75
2022/08/03 08:55:07;;;;;;;3.28;1.77;;;;;;;43.67;16.99;100562.03;5051539;28;20397;-75
2022/08/03 08:57:36;;;;;;;4.57;2.00;;;;;;;43.34;17.31;100564.47;5051560;28;20025;-77
2022/08/03 09:00:04;;;;;;;2.88;2.00;;;;;;;43.20;17.68;100561.16;5052810;28;20036;-76
2022/08/03 09:02:30;;;;;;;4.53;2.20;;;;;;;43.05;17.46;100560.13;5054283;28;20028;-76
2022/08/03 09:04:56;;;;;;;6.82;2.25;;;;;;;42.81;17.59;100550.63;5055344;28;20041;-76
2022/08/03 09:07:22;;;;;;;7.45;2.13;;;;;;;42.67;18.10;100554.09;5055386;28;20489;-76
2022/08/03 09:09:47;;;;;;;3.17;2.13;;;;;;;42.39;18.42;100546.69;5056342;28;20029;-76
2022/08/03 09:12:13;;;;;;;6.60;2.10;;;;;;;41.91;18.44;100556.13;5055160;28;20083;-76
2022/08/03 09:14:39;;;;;;;2.88;2.38;;;;;;;41.58;18.50;100553.75;5055147;28;20037;-75
2022/08/03 09:17:04;;;;;;;7.00;2.13;;;;;;;41.18;18.92;100556.41;5055211;28;20059;-75
2022/08/03 09:19:31;;;;;;;2.55;1.73;;;;;;;40.74;19.11;100546.91;5054955;28;20082;-76
2022/08/03 09:22:16;;;;;;;10.85;3.10;;;;;;;40.41;19.43;100542.19;5054966;28;20044;-76
2022/08/03 09:24:56;;;;;;;10.60;2.72;;;;;;;40.27;20.33;100542.53;5038116;28;20033;-77
2022/08/03 09:27:22;;;;;;;2.90;1.90;;;;;;;40.05;19.95;100536.56;5038183;28;20107;-76
2022/08/03 09:29:48;;;;;;;9.77;3.67;;;;;;;39.75;20.64;100533.34;5038042;28;20454;-76
2022/08/03 09:32:14;;;;;;;10.15;2.97;;;;;;;39.46;20.62;100527.13;5054930;28;20087;-75
2022/08/03 09:34:39;;;;;;;10.07;2.17;;;;;;;39.21;20.91;100528.47;5054747;28;20462;-76
2022/08/03 09:37:12;;;;;;;13.30;2.95;;;;;;;39.06;20.56;100544.38;5056111;28;20048;-77
2022/08/03 09:39:37;;;;;;;2.65;1.80;;;;;;;38.89;21.36;100528.84;5054298;28;20405;-76
2022/08/03 09:42:06;;;;;;;6.13;1.50;;;;;;;38.73;21.52;100521.50;5054453;28;20489;-75
2022/08/03 09:44:41;;;;;;;10.00;2.55;;;;;;;38.52;21.30;100523.72;5054672;28;20033;-75
2022/08/03 09:47:07;;;;;;;3.88;1.80;;;;;;;38.24;21.42;100528.63;5054487;28;20452;-76
2022/08/03 09:49:32;;;;;;;2.97;1.83;;;;;;;38.04;21.95;100534.53;5037670;28;20028;-76
2022/08/03 09:52:02;;;;;;;3.25;1.85;;;;;;;37.90;22.01;100530.22;5037532;28;20465;-77
2022/08/03 09:54:31;;;;;;;5.25;1.80;;;;;;;37.77;22.04;100534.16;5054500;28;20040;-76
2022/08/03 09:56:57;;;;;;;2.00;1.80;;;;;;;37.64;22.71;100530.63;5037609;28;20079;-76
2022/08/03 09:59:27;;;;;;;25.70;4.43;;;;;;;37.52;22.45;100527.13;5055567;28;20036;-75
2022/08/03 10:01:54;;;;;;;6.03;2.53;;;;;;;37.34;22.10;100528.59;5054406;28;20051;-76
2022/08/03 10:04:21;;;;;;;6.32;2.88;;;;;;;37.15;22.96;100518.06;5053878;28;20059;-76
2022/08/03 10:07:08;;;;;;;5.10;2.70;;;;;;;36.91;22.36;100522.97;5053997;28;20029;-76
2022/08/03 10:09:34;;;;;;;5.40;1.95;;;;;;;36.70;22.88;100522.03;5053926;28;20039;-75
2022/08/03 10:12:12;;;;;;;5.82;2.28;;;;;;;36.45;23.69;100520.16;5054007;28;20420;-75
2022/08/03 10:14:40;;;;;;;5.18;2.03;;;;;;;36.21;23.79;100521.97;5052489;28;20048;-74
2022/08/03 10:17:06;;;;;;;4.32;2.15;;;;;;;36.09;24.20;100515.44;5037045;28;20029;-74
2022/08/03 10:19:32;;;;;;;9.40;2.95;;;;;;;35.97;25.12;100508.88;5037142;28;20056;-76
2022/08/03 10:22:02;;;;;;;24.55;5.18;;;;;;;35.83;24.67;100508.19;5037057;28;20025;-76
2022/08/03 10:24:29;;;;;;;6.93;2.20;;;;;;;35.59;24.30;100510.75;5053753;28;20107;-76
2022/08/03 10:27:15;;;;;;;2.63;2.20;;;;;;;35.41;25.08;100513.53;5053685;28;20124;-75
2022/08/03 10:29:43;;;;;;;2.05;1.77;;;;;;;35.24;24.90;100513.41;5052744;28;20041;-77
2022/08/03 10:32:14;;;;;;;1.60;1.50;;;;;;;35.08;26.42;100508.16;5036939;28;20462;-76
2022/08/03 10:34:41;;;;;;;8.93;2.85;;;;;;;34.92;26.12;100506.50;5053611;28;20145;-74
2022/08/03 10:37:10;;;;;;;12.38;3.20;;;;;;;34.78;26.97;100506.53;5055118;28;20516;-76
2022/08/03 10:39:35;;;;;;;11.90;2.90;;;;;;;34.63;26.36;100498.31;5053371;28;20064;-76
2022/08/03 10:42:02;;;;;;;7.93;2.63;;;;;;;34.48;26.29;100490.03;5054734;28;20032;-75
2022/08/03 10:44:31;;;;;;;5.05;2.45;;;;;;;34.49;27.50;100498.28;5053457;28;20465;-75
2022/08/03 10:46:57;;;;;;;10.40;2.58;;;;;;;34.32;26.42;100489.91;5053333;28;20029;-76
2022/08/03 10:49:23;;;;;;;5.97;2.08;;;;;;;34.13;26.64;100499.22;5036685;28;20075;-74
2022/08/03 10:51:49;;;;;;;3.05;2.00;;;;;;;34.00;27.52;100506.69;5036618;28;20493;-75
2022/08/03 10:54:36;;;;;;;3.63;2.08;;;;;;;33.83;27.78;100499.06;5036372;28;20017;-75
2022/08/03 10:59:47;;;;;;;2.00;1.75;;;;;;;33.41;28.81;100509.22;5053796;28;20171;-76
2022/08/03 11:02:13;;;;;;;1.80;1.42;;;;;;;33.22;28.40;100496.97;5054518;28;20020;-76
2022/08/03 11:04:40;;;;;;;3.60;1.85;;;;;;;33.05;27.81;100501.88;5054170;28;20016;-75
2022/08/03 11:07:14;;;;;;;1.58;1.48;;;;;;;32.92;28.68;100501.81;5054635;28;20033;-75
2022/08/03 11:09:47;;;;;;;1.80;1.70;;;;;;;32.84;28.43;100507.22;5054107;28;20025;-75
2022/08/03 11:12:29;;;;;;;10.43;2.22;;;;;;;32.75;27.30;100503.00;5052865;28;20031;-75
2022/08/03 11:14:56;;;;;;;4.97;2.20;;;;;;;32.58;27.96;100491.56;5052885;28;20055;-74
2022/08/03 11:17:21;;;;;;;2.28;1.50;;;;;;;32.45;28.43;100490.03;5053834;28;20063;-72
2022/08/03 11:19:52;;;;;;;2.97;1.48;;;;;;;32.40;27.96;100499.28;5035790;28;20405;-76
2022/08/03 11:22:19;;;;;;;4.47;1.90;;;;;;;32.27;27.51;100491.06;5035856;28;20094;-76
2022/08/03 11:24:52;;;;;;;8.77;3.72;;;;;;;32.14;27.34;100487.31;5035419;28;20031;-76
2022/08/03 11:27:22;;;;;;;15.82;3.17;;;;;;;32.10;27.25;100490.00;5053936;28;20462;-75
2022/08/03 11:30:14;;;;;;;6.45;2.50;;;;;;;32.02;28.28;100492.47;5053568;28;20229;-76
2022/08/03 11:32:40;;;;;;;4.15;1.67;;;;;;;32.04;28.10;100495.56;5054086;28;20032;-76
2022/08/03 11:35:08;;;;;;;3.00;1.60;;;;;;;32.02;26.95;100488.72;5052491;28;20025;-76
2022/08/03 11:37:34;;;;;;;1.65;1.55;;;;;;;31.94;27.05;100486.03;5052174;28;20031;-74